This is the latest recevied weather packets stored in our database for station/object SQ5AAG-2. If no packets are shown the sender has not sent any weather packets the latest 10 day(s).
| Time | Temp. | Humidity | Pressure | Rain* | Wind** | Luminosity | Snow |
|---|---|---|---|---|---|---|---|
| 1777179078 | 5.56° C | 68% | 998.6 hPa | 0 mm | - | - | - |
| 1777178778 | 5° C | 69% | 998.5 hPa | 0 mm | - | - | - |
| 1777178477 | 5° C | 70% | 998.5 hPa | 0 mm | - | - | - |
| 1777178177 | 5° C | 70% | 998.2 hPa | 0 mm | - | - | - |
| 1777177877 | 5° C | 72% | 998.2 hPa | 0 mm | - | - | - |
| 1777177576 | 4.44° C | 73% | 998.1 hPa | 0 mm | - | - | - |
| 1777177276 | 3.89° C | 74% | 998 hPa | 0 mm | - | - | - |
| 1777176976 | 3.89° C | 75% | 997.8 hPa | 0 mm | - | - | - |
| 1777176676 | 3.89° C | 76% | 997.7 hPa | 0 mm | - | - | - |
| 1777176377 | 3.89° C | 76% | 997.6 hPa | 0 mm | - | - | - |
| 1777176075 | 3.89° C | 76% | 997.3 hPa | 0 mm | - | - | - |
| 1777175775 | 3.89° C | 76% | 997.2 hPa | 0 mm | - | - | - |
| 1777175474 | 3.89° C | 76% | 997 hPa | 0 mm | - | - | - |
| 1777175174 | 3.89° C | 76% | 996.8 hPa | 0 mm | - | - | - |
| 1777174874 | 3.89° C | 77% | 996.5 hPa | 0 mm | - | - | - |
| 1777174574 | 3.89° C | 80% | 996.5 hPa | 0 mm | - | - | - |
| 1777174273 | 3.89° C | 79% | 996.2 hPa | 0 mm | - | - | - |
| 1777173983 | 3.89° C | - | - | 0 mm | - | - | - |
| 1777173974 | 3.89° C | 79% | 996.1 hPa | 0 mm | - | - | - |
| 1777173681 | 3.89° C | 77% | 995.8 hPa | 0 mm | - | - | - |
| 1777173673 | 3.89° C | 77% | 995.8 hPa | 0 mm | - | - | - |
* Rain latest hour (hover to see other rain measurements)
** Current wind speed in m/s (hover to see current wind gust speed)